sensor_id;sensor_type;location;lat;lon;timestamp;P1;durP1;ratioP1;P2;durP2;ratioP2
32333;SDS011;18810;53.040;8.850;2023-05-02T00:00:02;35.72;;;22.58;;
32333;SDS011;18810;53.040;8.850;2023-05-02T00:02:28;37.88;;;22.98;;
32333;SDS011;18810;53.040;8.850;2023-05-02T00:04:54;37.05;;;23.17;;
32333;SDS011;18810;53.040;8.850;2023-05-02T00:07:20;39.63;;;23.85;;
32333;SDS011;18810;53.040;8.850;2023-05-02T00:09:46;41.40;;;24.27;;
32333;SDS011;18810;53.040;8.850;2023-05-02T00:12:11;38.15;;;23.85;;
32333;SDS011;18810;53.040;8.850;2023-05-02T00:14:37;43.70;;;25.73;;
32333;SDS011;18810;53.040;8.850;2023-05-02T00:17:02;44.40;;;26.27;;
32333;SDS011;18810;53.040;8.850;2023-05-02T00:19:28;39.25;;;24.88;;
32333;SDS011;18810;53.040;8.850;2023-05-02T00:21:54;40.03;;;26.00;;
32333;SDS011;18810;53.040;8.850;2023-05-02T00:24:19;43.47;;;25.75;;
32333;SDS011;18810;53.040;8.850;2023-05-02T00:26:45;40.38;;;23.77;;
32333;SDS011;18810;53.040;8.850;2023-05-02T00:29:10;38.25;;;23.67;;
32333;SDS011;18810;53.040;8.850;2023-05-02T00:31:36;37.55;;;24.13;;
32333;SDS011;18810;53.040;8.850;2023-05-02T00:34:04;41.38;;;24.63;;
32333;SDS011;18810;53.040;8.850;2023-05-02T00:36:30;42.17;;;26.08;;
32333;SDS011;18810;53.040;8.850;2023-05-02T00:38:56;39.75;;;24.08;;
32333;SDS011;18810;53.040;8.850;2023-05-02T00:41:21;45.92;;;26.27;;
32333;SDS011;18810;53.040;8.850;2023-05-02T00:43:47;37.15;;;23.73;;
32333;SDS011;18810;53.040;8.850;2023-05-02T00:46:13;39.80;;;24.63;;
32333;SDS011;18810;53.040;8.850;2023-05-02T00:48:39;37.05;;;23.45;;
32333;SDS011;18810;53.040;8.850;2023-05-02T00:51:05;38.33;;;22.58;;
32333;SDS011;18810;53.040;8.850;2023-05-02T00:53:32;41.33;;;24.83;;
32333;SDS011;18810;53.040;8.850;2023-05-02T00:55:59;41.63;;;24.85;;
32333;SDS011;18810;53.040;8.850;2023-05-02T00:58:26;35.92;;;23.20;;
32333;SDS011;18810;53.040;8.850;2023-05-02T01:08:49;40.55;;;23.80;;
32333;SDS011;18810;53.040;8.850;2023-05-02T01:14:17;40.90;;;23.42;;
32333;SDS011;18810;53.040;8.850;2023-05-02T01:16:45;38.67;;;22.52;;
32333;SDS011;18810;53.040;8.850;2023-05-02T01:19:18;39.45;;;23.98;;
32333;SDS011;18810;53.040;8.850;2023-05-02T01:21:49;37.22;;;21.85;;
32333;SDS011;18810;53.040;8.850;2023-05-02T01:24:23;40.10;;;22.75;;
32333;SDS011;18810;53.040;8.850;2023-05-02T01:29:31;39.13;;;21.83;;
32333;SDS011;18810;53.040;8.850;2023-05-02T01:31:57;41.50;;;23.65;;
32333;SDS011;18810;53.040;8.850;2023-05-02T01:34:24;39.40;;;23.40;;
32333;SDS011;18810;53.040;8.850;2023-05-02T01:36:53;41.15;;;23.50;;
32333;SDS011;18810;53.040;8.850;2023-05-02T01:39:23;38.28;;;22.98;;
32333;SDS011;18810;53.040;8.850;2023-05-02T01:41:50;36.45;;;20.10;;
32333;SDS011;18810;53.040;8.850;2023-05-02T01:44:19;33.53;;;18.58;;
32333;SDS011;18810;53.040;8.850;2023-05-02T01:46:46;34.83;;;17.80;;
32333;SDS011;18810;53.040;8.850;2023-05-02T01:49:14;35.08;;;17.40;;
32333;SDS011;18810;53.040;8.850;2023-05-02T01:51:43;37.47;;;18.63;;
32333;SDS011;18810;53.040;8.850;2023-05-02T01:54:16;33.03;;;18.05;;
32333;SDS011;18810;53.040;8.850;2023-05-02T01:56:45;41.40;;;20.30;;
32333;SDS011;18810;53.040;8.850;2023-05-02T01:59:14;36.10;;;18.27;;
32333;SDS011;18810;53.040;8.850;2023-05-02T02:01:42;33.25;;;16.50;;
32333;SDS011;18810;53.040;8.850;2023-05-02T02:04:08;33.30;;;17.35;;
32333;SDS011;18810;53.040;8.850;2023-05-02T02:06:36;36.88;;;16.88;;
32333;SDS011;18810;53.040;8.850;2023-05-02T02:09:03;30.20;;;16.10;;
32333;SDS011;18810;53.040;8.850;2023-05-02T02:11:34;31.95;;;15.32;;
32333;SDS011;18810;53.040;8.850;2023-05-02T02:14:26;30.55;;;15.57;;
32333;SDS011;18810;53.040;8.850;2023-05-02T02:16:57;30.63;;;14.60;;
32333;SDS011;18810;53.040;8.850;2023-05-02T02:19:25;27.77;;;14.85;;
32333;SDS011;18810;53.040;8.850;2023-05-02T02:21:54;13.02;;;7.78;;
32333;SDS011;18810;53.040;8.850;2023-05-02T02:24:22;9.82;;;5.85;;
32333;SDS011;18810;53.040;8.850;2023-05-02T02:26:49;7.30;;;5.25;;
32333;SDS011;18810;53.040;8.850;2023-05-02T02:29:15;6.05;;;4.47;;
32333;SDS011;18810;53.040;8.850;2023-05-02T02:31:41;6.65;;;4.35;;
32333;SDS011;18810;53.040;8.850;2023-05-02T02:34:07;5.85;;;4.35;;
32333;SDS011;18810;53.040;8.850;2023-05-02T02:36:43;6.10;;;4.40;;
32333;SDS011;18810;53.040;8.850;2023-05-02T02:41:54;7.07;;;4.38;;
32333;SDS011;18810;53.040;8.850;2023-05-02T02:47:32;5.95;;;3.92;;
32333;SDS011;18810;53.040;8.850;2023-05-02T02:50:04;6.63;;;3.58;;
32333;SDS011;18810;53.040;8.850;2023-05-02T02:52:58;4.70;;;3.50;;
32333;SDS011;18810;53.040;8.850;2023-05-02T02:55:33;4.80;;;3.00;;
32333;SDS011;18810;53.040;8.850;2023-05-02T02:58:33;7.65;;;3.60;;
32333;SDS011;18810;53.040;8.850;2023-05-02T03:01:05;6.97;;;3.58;;
32333;SDS011;18810;53.040;8.850;2023-05-02T03:06:03;8.80;;;4.18;;
32333;SDS011;18810;53.040;8.850;2023-05-02T03:08:37;10.80;;;4.75;;
32333;SDS011;18810;53.040;8.850;2023-05-02T03:11:04;15.23;;;4.93;;
32333;SDS011;18810;53.040;8.850;2023-05-02T03:13:29;17.42;;;5.25;;
32333;SDS011;18810;53.040;8.850;2023-05-02T03:18:58;17.05;;;5.65;;
32333;SDS011;18810;53.040;8.850;2023-05-02T03:21:24;18.38;;;6.32;;
32333;SDS011;18810;53.040;8.850;2023-05-02T03:23:50;17.40;;;5.47;;
32333;SDS011;18810;53.040;8.850;2023-05-02T03:26:15;20.48;;;6.47;;
32333;SDS011;18810;53.040;8.850;2023-05-02T03:28:41;23.33;;;5.50;;
32333;SDS011;18810;53.040;8.850;2023-05-02T03:31:10;21.73;;;6.68;;
32333;SDS011;18810;53.040;8.850;2023-05-02T03:33:37;18.95;;;5.97;;
32333;SDS011;18810;53.040;8.850;2023-05-02T03:36:02;18.42;;;5.90;;
32333;SDS011;18810;53.040;8.850;2023-05-02T03:38:28;19.25;;;6.43;;
32333;SDS011;18810;53.040;8.850;2023-05-02T03:40:57;20.30;;;5.95;;
32333;SDS011;18810;53.040;8.850;2023-05-02T03:43:23;24.10;;;7.07;;
32333;SDS011;18810;53.040;8.850;2023-05-02T03:45:49;22.40;;;6.20;;
32333;SDS011;18810;53.040;8.850;2023-05-02T03:48:14;21.13;;;6.65;;
32333;SDS011;18810;53.040;8.850;2023-05-02T03:50:40;20.75;;;6.05;;
32333;SDS011;18810;53.040;8.850;2023-05-02T03:53:06;23.33;;;6.10;;
32333;SDS011;18810;53.040;8.850;2023-05-02T03:55:37;22.83;;;6.65;;
32333;SDS011;18810;53.040;8.850;2023-05-02T03:58:07;26.00;;;7.30;;
32333;SDS011;18810;53.040;8.850;2023-05-02T04:00:34;21.52;;;6.80;;
32333;SDS011;18810;53.040;8.850;2023-05-02T04:03:00;21.27;;;6.85;;
32333;SDS011;18810;53.040;8.850;2023-05-02T04:05:26;27.10;;;7.82;;
32333;SDS011;18810;53.040;8.850;2023-05-02T04:07:52;28.45;;;7.00;;
32333;SDS011;18810;53.040;8.850;2023-05-02T04:10:18;25.05;;;6.60;;
32333;SDS011;18810;53.040;8.850;2023-05-02T04:12:44;25.05;;;6.70;;
32333;SDS011;18810;53.040;8.850;2023-05-02T04:15:10;25.33;;;6.13;;
32333;SDS011;18810;53.040;8.850;2023-05-02T04:17:36;26.83;;;6.47;;
32333;SDS011;18810;53.040;8.850;2023-05-02T04:20:02;26.73;;;6.20;;
32333;SDS011;18810;53.040;8.850;2023-05-02T04:22:29;21.60;;;5.97;;
32333;SDS011;18810;53.040;8.850;2023-05-02T04:24:55;19.73;;;5.72;;
32333;SDS011;18810;53.040;8.850;2023-05-02T04:27:21;28.05;;;6.35;;
32333;SDS011;18810;53.040;8.850;2023-05-02T04:29:47;24.98;;;6.18;;
32333;SDS011;18810;53.040;8.850;2023-05-02T04:32:13;24.35;;;5.95;;
32333;SDS011;18810;53.040;8.850;2023-05-02T04:34:39;21.05;;;6.10;;
32333;SDS011;18810;53.040;8.850;2023-05-02T04:37:05;21.98;;;5.72;;
32333;SDS011;18810;53.040;8.850;2023-05-02T04:39:31;16.23;;;5.13;;
32333;SDS011;18810;53.040;8.850;2023-05-02T04:41:57;19.75;;;6.00;;
32333;SDS011;18810;53.040;8.850;2023-05-02T04:44:23;18.27;;;5.68;;
32333;SDS011;18810;53.040;8.850;2023-05-02T04:46:49;21.77;;;5.97;;
32333;SDS011;18810;53.040;8.850;2023-05-02T04:49:14;19.08;;;5.38;;
32333;SDS011;18810;53.040;8.850;2023-05-02T04:51:40;20.13;;;6.53;;
32333;SDS011;18810;53.040;8.850;2023-05-02T04:54:06;21.42;;;6.78;;
32333;SDS011;18810;53.040;8.850;2023-05-02T04:56:31;29.90;;;6.82;;
32333;SDS011;18810;53.040;8.850;2023-05-02T04:58:57;21.45;;;5.82;;
32333;SDS011;18810;53.040;8.850;2023-05-02T05:01:23;21.30;;;5.60;;
32333;SDS011;18810;53.040;8.850;2023-05-02T05:03:51;25.75;;;6.82;;
32333;SDS011;18810;53.040;8.850;2023-05-02T05:06:17;22.90;;;6.40;;
32333;SDS011;18810;53.040;8.850;2023-05-02T05:08:43;26.55;;;7.00;;
32333;SDS011;18810;53.040;8.850;2023-05-02T05:11:09;23.08;;;5.78;;
32333;SDS011;18810;53.040;8.850;2023-05-02T05:13:35;23.25;;;6.32;;
32333;SDS011;18810;53.040;8.850;2023-05-02T05:16:01;24.25;;;6.65;;
32333;SDS011;18810;53.040;8.850;2023-05-02T05:18:28;22.13;;;6.40;;
32333;SDS011;18810;53.040;8.850;2023-05-02T05:20:54;25.45;;;5.93;;
32333;SDS011;18810;53.040;8.850;2023-05-02T05:23:20;20.17;;;5.88;;
32333;SDS011;18810;53.040;8.850;2023-05-02T05:25:45;18.45;;;5.75;;
32333;SDS011;18810;53.040;8.850;2023-05-02T05:28:11;30.48;;;7.55;;
32333;SDS011;18810;53.040;8.850;2023-05-02T05:30:37;23.60;;;6.10;;
32333;SDS011;18810;53.040;8.850;2023-05-02T05:33:02;27.50;;;5.65;;
32333;SDS011;18810;53.040;8.850;2023-05-02T05:35:28;22.70;;;5.72;;
32333;SDS011;18810;53.040;8.850;2023-05-02T05:37:56;19.05;;;6.45;;
32333;SDS011;18810;53.040;8.850;2023-05-02T05:40:21;17.00;;;5.55;;
32333;SDS011;18810;53.040;8.850;2023-05-02T05:42:47;18.92;;;5.78;;
32333;SDS011;18810;53.040;8.850;2023-05-02T05:45:13;20.40;;;5.40;;
32333;SDS011;18810;53.040;8.850;2023-05-02T05:47:41;17.67;;;5.32;;
32333;SDS011;18810;53.040;8.850;2023-05-02T05:50:07;18.27;;;4.93;;
32333;SDS011;18810;53.040;8.850;2023-05-02T05:52:33;23.83;;;6.07;;
32333;SDS011;18810;53.040;8.850;2023-05-02T05:54:58;17.40;;;5.05;;
32333;SDS011;18810;53.040;8.850;2023-05-02T05:57:24;13.80;;;4.65;;
32333;SDS011;18810;53.040;8.850;2023-05-02T05:59:50;19.35;;;5.55;;
32333;SDS011;18810;53.040;8.850;2023-05-02T06:02:16;19.00;;;5.28;;
32333;SDS011;18810;53.040;8.850;2023-05-02T06:04:42;20.67;;;5.30;;
32333;SDS011;18810;53.040;8.850;2023-05-02T06:07:10;15.40;;;5.28;;
32333;SDS011;18810;53.040;8.850;2023-05-02T06:09:35;16.73;;;5.05;;
32333;SDS011;18810;53.040;8.850;2023-05-02T06:12:01;15.20;;;5.30;;
32333;SDS011;18810;53.040;8.850;2023-05-02T06:14:26;14.05;;;6.20;;
32333;SDS011;18810;53.040;8.850;2023-05-02T06:16:52;13.30;;;4.72;;
32333;SDS011;18810;53.040;8.850;2023-05-02T06:19:18;13.10;;;4.72;;
32333;SDS011;18810;53.040;8.850;2023-05-02T06:21:43;21.70;;;4.70;;
32333;SDS011;18810;53.040;8.850;2023-05-02T06:24:09;15.50;;;5.20;;
32333;SDS011;18810;53.040;8.850;2023-05-02T06:26:35;11.98;;;3.97;;
32333;SDS011;18810;53.040;8.850;2023-05-02T06:29:00;15.88;;;3.97;;
32333;SDS011;18810;53.040;8.850;2023-05-02T06:31:26;20.38;;;4.53;;
32333;SDS011;18810;53.040;8.850;2023-05-02T06:33:52;18.65;;;4.28;;
32333;SDS011;18810;53.040;8.850;2023-05-02T06:36:18;14.63;;;3.95;;
32333;SDS011;18810;53.040;8.850;2023-05-02T06:38:43;10.65;;;3.53;;
32333;SDS011;18810;53.040;8.850;2023-05-02T06:41:12;12.90;;;3.50;;
32333;SDS011;18810;53.040;8.850;2023-05-02T06:43:41;17.13;;;4.05;;
32333;SDS011;18810;53.040;8.850;2023-05-02T06:46:07;13.73;;;3.85;;
32333;SDS011;18810;53.040;8.850;2023-05-02T06:48:34;13.88;;;3.80;;
32333;SDS011;18810;53.040;8.850;2023-05-02T06:51:00;11.63;;;3.70;;
32333;SDS011;18810;53.040;8.850;2023-05-02T06:53:28;11.15;;;3.80;;
32333;SDS011;18810;53.040;8.850;2023-05-02T06:55:54;10.07;;;3.80;;
32333;SDS011;18810;53.040;8.850;2023-05-02T06:58:19;12.90;;;3.90;;
32333;SDS011;18810;53.040;8.850;2023-05-02T07:00:45;12.95;;;3.80;;
32333;SDS011;18810;53.040;8.850;2023-05-02T07:03:12;16.83;;;4.60;;
32333;SDS011;18810;53.040;8.850;2023-05-02T07:05:38;13.52;;;3.85;;
32333;SDS011;18810;53.040;8.850;2023-05-02T07:08:04;12.50;;;4.00;;
32333;SDS011;18810;53.040;8.850;2023-05-02T07:10:29;10.07;;;3.85;;
32333;SDS011;18810;53.040;8.850;2023-05-02T07:12:55;11.98;;;4.25;;
32333;SDS011;18810;53.040;8.850;2023-05-02T07:15:21;14.50;;;4.72;;
32333;SDS011;18810;53.040;8.850;2023-05-02T07:17:46;15.43;;;4.60;;
32333;SDS011;18810;53.040;8.850;2023-05-02T07:20:13;10.18;;;4.00;;
32333;SDS011;18810;53.040;8.850;2023-05-02T07:22:39;14.75;;;3.95;;
32333;SDS011;18810;53.040;8.850;2023-05-02T07:25:05;12.98;;;4.05;;
32333;SDS011;18810;53.040;8.850;2023-05-02T07:27:31;11.02;;;4.32;;
32333;SDS011;18810;53.040;8.850;2023-05-02T07:29:56;13.13;;;4.20;;
32333;SDS011;18810;53.040;8.850;2023-05-02T07:32:22;13.18;;;4.05;;
32333;SDS011;18810;53.040;8.850;2023-05-02T07:34:49;12.60;;;4.35;;
32333;SDS011;18810;53.040;8.850;2023-05-02T07:37:18;10.35;;;5.03;;
32333;SDS011;18810;53.040;8.850;2023-05-02T07:39:44;15.20;;;4.00;;
32333;SDS011;18810;53.040;8.850;2023-05-02T07:42:09;12.23;;;4.53;;
32333;SDS011;18810;53.040;8.850;2023-05-02T07:44:35;17.98;;;4.63;;
32333;SDS011;18810;53.040;8.850;2023-05-02T07:47:01;11.10;;;4.65;;
32333;SDS011;18810;53.040;8.850;2023-05-02T07:49:26;12.60;;;3.70;;
32333;SDS011;18810;53.040;8.850;2023-05-02T07:51:52;17.17;;;4.50;;
32333;SDS011;18810;53.040;8.850;2023-05-02T07:54:18;15.63;;;4.25;;
32333;SDS011;18810;53.040;8.850;2023-05-02T07:56:45;10.90;;;4.07;;
32333;SDS011;18810;53.040;8.850;2023-05-02T07:59:11;14.15;;;3.72;;
32333;SDS011;18810;53.040;8.850;2023-05-02T08:01:38;8.80;;;3.65;;
32333;SDS011;18810;53.040;8.850;2023-05-02T08:04:04;13.77;;;5.20;;
32333;SDS011;18810;53.040;8.850;2023-05-02T08:06:30;12.65;;;4.25;;
32333;SDS011;18810;53.040;8.850;2023-05-02T08:08:58;16.20;;;4.60;;
32333;SDS011;18810;53.040;8.850;2023-05-02T08:11:24;9.48;;;3.95;;
32333;SDS011;18810;53.040;8.850;2023-05-02T08:13:50;10.20;;;4.50;;
32333;SDS011;18810;53.040;8.850;2023-05-02T08:16:17;10.05;;;4.30;;
32333;SDS011;18810;53.040;8.850;2023-05-02T08:18:43;16.25;;;4.80;;
32333;SDS011;18810;53.040;8.850;2023-05-02T08:21:08;11.00;;;4.68;;
32333;SDS011;18810;53.040;8.850;2023-05-02T08:23:34;15.88;;;5.30;;
32333;SDS011;18810;53.040;8.850;2023-05-02T08:26:01;12.95;;;4.15;;
32333;SDS011;18810;53.040;8.850;2023-05-02T08:28:27;14.75;;;4.68;;
32333;SDS011;18810;53.040;8.850;2023-05-02T08:30:53;16.15;;;5.32;;
32333;SDS011;18810;53.040;8.850;2023-05-02T08:33:19;14.73;;;5.00;;
32333;SDS011;18810;53.040;8.850;2023-05-02T08:35:45;15.57;;;5.50;;
32333;SDS011;18810;53.040;8.850;2023-05-02T08:38:10;13.77;;;4.32;;
32333;SDS011;18810;53.040;8.850;2023-05-02T08:40:36;10.27;;;4.45;;
32333;SDS011;18810;53.040;8.850;2023-05-02T08:43:03;14.05;;;4.85;;
32333;SDS011;18810;53.040;8.850;2023-05-02T08:45:40;8.63;;;4.97;;
32333;SDS011;18810;53.040;8.850;2023-05-02T08:48:07;13.20;;;4.28;;
32333;SDS011;18810;53.040;8.850;2023-05-02T08:50:38;16.10;;;4.60;;
32333;SDS011;18810;53.040;8.850;2023-05-02T08:53:10;18.33;;;5.20;;
32333;SDS011;18810;53.040;8.850;2023-05-02T08:55:37;15.23;;;4.50;;
32333;SDS011;18810;53.040;8.850;2023-05-02T08:58:06;11.43;;;4.18;;
32333;SDS011;18810;53.040;8.850;2023-05-02T09:00:40;12.82;;;4.32;;
32333;SDS011;18810;53.040;8.850;2023-05-02T09:03:10;10.90;;;4.28;;
32333;SDS011;18810;53.040;8.850;2023-05-02T09:05:53;10.38;;;3.17;;
32333;SDS011;18810;53.040;8.850;2023-05-02T09:08:29;8.38;;;3.10;;
32333;SDS011;18810;53.040;8.850;2023-05-02T09:10:56;7.63;;;3.08;;
32333;SDS011;18810;53.040;8.850;2023-05-02T09:16:00;9.25;;;3.28;;
32333;SDS011;18810;53.040;8.850;2023-05-02T09:18:31;9.57;;;3.35;;
32333;SDS011;18810;53.040;8.850;2023-05-02T09:20:58;8.55;;;3.40;;
32333;SDS011;18810;53.040;8.850;2023-05-02T09:26:40;6.35;;;2.90;;
32333;SDS011;18810;53.040;8.850;2023-05-02T09:29:05;5.35;;;2.72;;
32333;SDS011;18810;53.040;8.850;2023-05-02T09:31:32;6.20;;;2.80;;
32333;SDS011;18810;53.040;8.850;2023-05-02T09:34:22;4.55;;;2.40;;
32333;SDS011;18810;53.040;8.850;2023-05-02T09:36:49;10.55;;;2.92;;
32333;SDS011;18810;53.040;8.850;2023-05-02T09:39:19;7.28;;;3.15;;
32333;SDS011;18810;53.040;8.850;2023-05-02T09:41:46;6.20;;;3.63;;
32333;SDS011;18810;53.040;8.850;2023-05-02T09:44:16;10.80;;;3.83;;
32333;SDS011;18810;53.040;8.850;2023-05-02T09:46:46;5.38;;;2.58;;
32333;SDS011;18810;53.040;8.850;2023-05-02T09:49:12;4.80;;;2.45;;
32333;SDS011;18810;53.040;8.850;2023-05-02T09:51:38;5.05;;;2.40;;
32333;SDS011;18810;53.040;8.850;2023-05-02T09:54:05;5.72;;;2.10;;
32333;SDS011;18810;53.040;8.850;2023-05-02T09:56:31;6.05;;;2.50;;
32333;SDS011;18810;53.040;8.850;2023-05-02T09:59:21;6.05;;;2.33;;
32333;SDS011;18810;53.040;8.850;2023-05-02T10:01:57;10.75;;;8.63;;
32333;SDS011;18810;53.040;8.850;2023-05-02T10:04:26;7.78;;;2.85;;
32333;SDS011;18810;53.040;8.850;2023-05-02T10:06:52;5.25;;;2.25;;
32333;SDS011;18810;53.040;8.850;2023-05-02T10:09:22;5.97;;;2.38;;
32333;SDS011;18810;53.040;8.850;2023-05-02T10:11:52;7.18;;;2.40;;
32333;SDS011;18810;53.040;8.850;2023-05-02T10:14:19;6.10;;;2.60;;
32333;SDS011;18810;53.040;8.850;2023-05-02T10:19:16;4.53;;;2.20;;
32333;SDS011;18810;53.040;8.850;2023-05-02T10:21:48;4.57;;;1.95;;
32333;SDS011;18810;53.040;8.850;2023-05-02T10:24:14;4.05;;;2.00;;
32333;SDS011;18810;53.040;8.850;2023-05-02T10:26:40;7.00;;;2.30;;
32333;SDS011;18810;53.040;8.850;2023-05-02T10:29:07;5.75;;;2.15;;
32333;SDS011;18810;53.040;8.850;2023-05-02T10:31:34;6.63;;;2.60;;
32333;SDS011;18810;53.040;8.850;2023-05-02T10:34:01;9.20;;;2.70;;
32333;SDS011;18810;53.040;8.850;2023-05-02T10:36:28;6.60;;;3.15;;
32333;SDS011;18810;53.040;8.850;2023-05-02T10:38:57;8.02;;;2.75;;
32333;SDS011;18810;53.040;8.850;2023-05-02T10:41:24;5.93;;;2.40;;
32333;SDS011;18810;53.040;8.850;2023-05-02T10:43:53;6.43;;;2.00;;
32333;SDS011;18810;53.040;8.850;2023-05-02T10:46:28;5.00;;;1.95;;
32333;SDS011;18810;53.040;8.850;2023-05-02T10:49:02;2.97;;;1.80;;
32333;SDS011;18810;53.040;8.850;2023-05-02T10:51:29;6.00;;;2.10;;
32333;SDS011;18810;53.040;8.850;2023-05-02T10:59:36;4.82;;;2.08;;
32333;SDS011;18810;53.040;8.850;2023-05-02T11:02:04;7.23;;;2.00;;
32333;SDS011;18810;53.040;8.850;2023-05-02T11:05:04;5.40;;;2.38;;
32333;SDS011;18810;53.040;8.850;2023-05-02T11:07:32;4.38;;;2.05;;
32333;SDS011;18810;53.040;8.850;2023-05-02T11:12:46;4.15;;;2.25;;
32333;SDS011;18810;53.040;8.850;2023-05-02T11:18:00;4.88;;;2.72;;
32333;SDS011;18810;53.040;8.850;2023-05-02T11:20:36;10.13;;;3.42;;
32333;SDS011;18810;53.040;8.850;2023-05-02T11:28:37;9.60;;;3.63;;
32333;SDS011;18810;53.040;8.850;2023-05-02T11:33:54;7.30;;;2.95;;
32333;SDS011;18810;53.040;8.850;2023-05-02T11:36:28;5.53;;;2.47;;
32333;SDS011;18810;53.040;8.850;2023-05-02T11:38:59;8.02;;;2.40;;
32333;SDS011;18810;53.040;8.850;2023-05-02T11:41:41;5.22;;;2.15;;
32333;SDS011;18810;53.040;8.850;2023-05-02T11:44:07;6.43;;;2.40;;
32333;SDS011;18810;53.040;8.850;2023-05-02T11:46:37;7.05;;;2.33;;
32333;SDS011;18810;53.040;8.850;2023-05-02T11:49:03;7.38;;;2.50;;
32333;SDS011;18810;53.040;8.850;2023-05-02T11:51:30;9.23;;;2.65;;
32333;SDS011;18810;53.040;8.850;2023-05-02T11:53:56;4.50;;;2.33;;
32333;SDS011;18810;53.040;8.850;2023-05-02T11:56:22;4.82;;;2.08;;
32333;SDS011;18810;53.040;8.850;2023-05-02T11:58:56;8.77;;;2.15;;
32333;SDS011;18810;53.040;8.850;2023-05-02T12:01:23;4.20;;;2.28;;
32333;SDS011;18810;53.040;8.850;2023-05-02T12:03:50;6.38;;;2.47;;
32333;SDS011;18810;53.040;8.850;2023-05-02T12:06:30;6.97;;;2.15;;
32333;SDS011;18810;53.040;8.850;2023-05-02T12:09:09;6.03;;;2.42;;
32333;SDS011;18810;53.040;8.850;2023-05-02T12:11:39;4.43;;;2.38;;
32333;SDS011;18810;53.040;8.850;2023-05-02T12:14:05;6.45;;;2.70;;
32333;SDS011;18810;53.040;8.850;2023-05-02T12:16:31;5.57;;;2.63;;
32333;SDS011;18810;53.040;8.850;2023-05-02T12:18:57;3.85;;;1.92;;
32333;SDS011;18810;53.040;8.850;2023-05-02T12:21:25;4.00;;;2.08;;
32333;SDS011;18810;53.040;8.850;2023-05-02T12:23:53;5.78;;;1.98;;
32333;SDS011;18810;53.040;8.850;2023-05-02T12:26:23;3.00;;;2.15;;
32333;SDS011;18810;53.040;8.850;2023-05-02T12:28:53;5.43;;;2.10;;
32333;SDS011;18810;53.040;8.850;2023-05-02T12:31:20;5.25;;;2.03;;
32333;SDS011;18810;53.040;8.850;2023-05-02T12:33:47;5.65;;;2.25;;
32333;SDS011;18810;53.040;8.850;2023-05-02T12:36:15;6.65;;;2.20;;
32333;SDS011;18810;53.040;8.850;2023-05-02T12:38:46;5.13;;;2.17;;
32333;SDS011;18810;53.040;8.850;2023-05-02T12:41:15;8.63;;;3.63;;
32333;SDS011;18810;53.040;8.850;2023-05-02T12:43:45;6.38;;;3.00;;
32333;SDS011;18810;53.040;8.850;2023-05-02T12:46:12;8.13;;;2.80;;
32333;SDS011;18810;53.040;8.850;2023-05-02T12:48:37;6.88;;;2.85;;
32333;SDS011;18810;53.040;8.850;2023-05-02T12:51:03;7.38;;;2.15;;
32333;SDS011;18810;53.040;8.850;2023-05-02T12:53:47;7.00;;;2.50;;
32333;SDS011;18810;53.040;8.850;2023-05-02T12:56:13;6.15;;;2.42;;
32333;SDS011;18810;53.040;8.850;2023-05-02T12:58:43;4.15;;;1.90;;
32333;SDS011;18810;53.040;8.850;2023-05-02T13:01:12;6.60;;;2.03;;
32333;SDS011;18810;53.040;8.850;2023-05-02T13:03:39;4.82;;;2.03;;
32333;SDS011;18810;53.040;8.850;2023-05-02T13:06:06;8.32;;;2.08;;
32333;SDS011;18810;53.040;8.850;2023-05-02T13:08:32;10.68;;;2.00;;
32333;SDS011;18810;53.040;8.850;2023-05-02T13:11:02;4.30;;;2.30;;
32333;SDS011;18810;53.040;8.850;2023-05-02T13:13:28;5.90;;;2.35;;
32333;SDS011;18810;53.040;8.850;2023-05-02T13:15:55;6.78;;;2.22;;
32333;SDS011;18810;53.040;8.850;2023-05-02T13:18:20;5.05;;;2.25;;
32333;SDS011;18810;53.040;8.850;2023-05-02T13:20:46;5.38;;;1.98;;
32333;SDS011;18810;53.040;8.850;2023-05-02T13:23:12;5.03;;;2.05;;
32333;SDS011;18810;53.040;8.850;2023-05-02T13:25:37;4.15;;;1.77;;
32333;SDS011;18810;53.040;8.850;2023-05-02T13:28:03;4.60;;;1.85;;
32333;SDS011;18810;53.040;8.850;2023-05-02T13:30:30;8.57;;;2.03;;
32333;SDS011;18810;53.040;8.850;2023-05-02T13:32:56;3.65;;;1.52;;
32333;SDS011;18810;53.040;8.850;2023-05-02T13:35:22;2.88;;;1.70;;
32333;SDS011;18810;53.040;8.850;2023-05-02T13:37:49;4.28;;;1.50;;
32333;SDS011;18810;53.040;8.850;2023-05-02T13:40:15;4.22;;;1.85;;
32333;SDS011;18810;53.040;8.850;2023-05-02T13:42:41;6.82;;;1.77;;
32333;SDS011;18810;53.040;8.850;2023-05-02T13:45:07;5.65;;;1.95;;
32333;SDS011;18810;53.040;8.850;2023-05-02T13:47:33;3.92;;;1.67;;
32333;SDS011;18810;53.040;8.850;2023-05-02T13:49:59;4.85;;;1.70;;
32333;SDS011;18810;53.040;8.850;2023-05-02T13:52:25;7.30;;;1.95;;
32333;SDS011;18810;53.040;8.850;2023-05-02T13:54:50;5.55;;;1.70;;
32333;SDS011;18810;53.040;8.850;2023-05-02T13:57:16;8.02;;;1.65;;
32333;SDS011;18810;53.040;8.850;2023-05-02T13:59:42;2.88;;;1.45;;
32333;SDS011;18810;53.040;8.850;2023-05-02T14:02:07;4.35;;;1.40;;
32333;SDS011;18810;53.040;8.850;2023-05-02T14:04:33;7.78;;;1.85;;
32333;SDS011;18810;53.040;8.850;2023-05-02T14:06:59;3.67;;;1.65;;
32333;SDS011;18810;53.040;8.850;2023-05-02T14:09:25;3.00;;;1.70;;
32333;SDS011;18810;53.040;8.850;2023-05-02T14:11:50;8.75;;;2.92;;
32333;SDS011;18810;53.040;8.850;2023-05-02T14:14:16;6.45;;;2.10;;
32333;SDS011;18810;53.040;8.850;2023-05-02T14:16:42;3.92;;;1.80;;
32333;SDS011;18810;53.040;8.850;2023-05-02T14:19:08;6.75;;;2.00;;
32333;SDS011;18810;53.040;8.850;2023-05-02T14:21:33;3.25;;;1.85;;
32333;SDS011;18810;53.040;8.850;2023-05-02T14:23:59;4.93;;;2.05;;
32333;SDS011;18810;53.040;8.850;2023-05-02T14:26:25;4.55;;;1.75;;
32333;SDS011;18810;53.040;8.850;2023-05-02T14:28:50;6.70;;;1.92;;
32333;SDS011;18810;53.040;8.850;2023-05-02T14:31:16;3.22;;;1.40;;
32333;SDS011;18810;53.040;8.850;2023-05-02T14:33:42;8.02;;;1.63;;
32333;SDS011;18810;53.040;8.850;2023-05-02T14:36:08;6.43;;;1.80;;
32333;SDS011;18810;53.040;8.850;2023-05-02T14:38:33;6.15;;;1.98;;
32333;SDS011;18810;53.040;8.850;2023-05-02T14:40:59;7.00;;;1.90;;
32333;SDS011;18810;53.040;8.850;2023-05-02T14:43:27;6.68;;;1.52;;
32333;SDS011;18810;53.040;8.850;2023-05-02T14:45:52;6.60;;;1.67;;
32333;SDS011;18810;53.040;8.850;2023-05-02T14:48:18;7.57;;;2.10;;
32333;SDS011;18810;53.040;8.850;2023-05-02T14:50:44;4.47;;;2.05;;
32333;SDS011;18810;53.040;8.850;2023-05-02T14:53:10;7.57;;;2.10;;
32333;SDS011;18810;53.040;8.850;2023-05-02T14:55:36;8.15;;;2.38;;
32333;SDS011;18810;53.040;8.850;2023-05-02T14:58:03;6.85;;;2.70;;
32333;SDS011;18810;53.040;8.850;2023-05-02T15:00:32;5.68;;;2.58;;
32333;SDS011;18810;53.040;8.850;2023-05-02T15:02:58;6.22;;;2.15;;
32333;SDS011;18810;53.040;8.850;2023-05-02T15:05:25;5.07;;;1.90;;
32333;SDS011;18810;53.040;8.850;2023-05-02T15:07:51;9.90;;;2.50;;
32333;SDS011;18810;53.040;8.850;2023-05-02T15:10:17;8.25;;;2.03;;
32333;SDS011;18810;53.040;8.850;2023-05-02T15:12:42;5.40;;;1.92;;
32333;SDS011;18810;53.040;8.850;2023-05-02T15:15:10;5.15;;;1.77;;
32333;SDS011;18810;53.040;8.850;2023-05-02T15:17:35;4.43;;;2.08;;
32333;SDS011;18810;53.040;8.850;2023-05-02T15:20:01;6.20;;;1.90;;
32333;SDS011;18810;53.040;8.850;2023-05-02T15:22:28;3.67;;;1.98;;
32333;SDS011;18810;53.040;8.850;2023-05-02T15:24:54;5.22;;;2.22;;
32333;SDS011;18810;53.040;8.850;2023-05-02T15:27:19;4.43;;;1.52;;
32333;SDS011;18810;53.040;8.850;2023-05-02T15:29:45;4.15;;;1.45;;
32333;SDS011;18810;53.040;8.850;2023-05-02T15:32:11;6.30;;;1.65;;